Time;durP1;ratioP1;P1;durP2;ratioP2;P2;SDS_P1;SDS_P2;PMS_P1;PMS_P2;Temp;Humidity;BMP_temperature;BMP_pressure;BME280_temperature;BME280_humidity;BME280_pressure;Samples;Min_cycle;Max_cycle;Signal;HPM_P1;HPM_P2
2023/11/20 00:01:45;;;;;;;10.97;4.63;;;-1.90;99.90;;;;;;1915404;74;25718;-88
2023/11/20 00:04:34;;;;;;;9.10;4.37;;;-1.90;99.90;;;;;;1919023;74;25214;-88
2023/11/20 00:07:23;;;;;;;10.10;4.60;;;-1.90;99.90;;;;;;1869050;76;25267;-88
2023/11/20 00:10:12;;;;;;;7.37;4.23;;;-2.00;99.90;;;;;;1869682;75;25349;-88
2023/11/20 00:15:41;;;;;;;9.67;4.60;;;-1.90;99.90;;;;;;1933576;72;27099;-88
2023/11/20 00:18:30;;;;;;;7.37;3.93;;;-1.90;99.90;;;;;;1899906;75;25251;-88
2023/11/20 00:21:19;;;;;;;7.37;4.10;;;-1.90;99.90;;;;;;1891611;75;25162;-88
2023/11/20 00:24:09;;;;;;;9.33;4.30;;;-1.70;99.90;;;;;;1893334;75;25223;-88
2023/11/20 00:26:57;;;;;;;10.37;4.83;;;-1.70;99.90;;;;;;1897625;75;25326;-87
2023/11/20 00:29:46;;;;;;;10.07;4.53;;;-1.60;99.90;;;;;;1897124;75;25781;-88
2023/11/20 00:32:34;;;;;;;8.67;4.67;;;-1.60;99.90;;;;;;1895183;75;25704;-87
2023/11/20 00:38:08;;;;;;;7.93;3.87;;;-1.70;99.90;;;;;;1936304;72;27579;-88
2023/11/20 00:40:56;;;;;;;8.37;4.20;;;-1.70;99.90;;;;;;1892883;75;25171;-88
2023/11/20 00:43:45;;;;;;;6.07;3.77;;;-1.80;99.90;;;;;;1888630;75;25373;-88
2023/11/20 00:49:14;;;;;;;8.63;3.43;;;-1.50;99.90;;;;;;1925533;73;27095;-88
2023/11/20 00:52:03;;;;;;;8.33;3.83;;;-1.60;99.90;;;;;;1941599;73;25277;-88
2023/11/20 00:57:33;;;;;;;6.50;3.67;;;-1.80;99.90;;;;;;1940672;72;27631;-88
2023/11/20 01:00:23;;;;;;;8.20;4.13;;;-1.80;99.90;;;;;;1910146;74;25279;-88
2023/11/20 01:03:13;;;;;;;10.47;4.10;;;-1.80;99.90;;;;;;1900954;75;25320;-87
2023/11/20 01:06:04;;;;;;;11.47;4.20;;;-1.70;99.90;;;;;;1870597;76;25258;-87
2023/11/20 01:08:53;;;;;;;8.23;4.10;;;-1.70;99.90;;;;;;1904961;74;25341;-87
2023/11/20 01:11:44;;;;;;;7.70;4.03;;;-1.70;99.90;;;;;;1903266;74;25772;-87
2023/11/20 01:14:32;;;;;;;8.60;4.37;;;-1.80;99.90;;;;;;1904606;74;25251;-87
2023/11/20 01:17:21;;;;;;;10.20;4.53;;;-1.70;99.90;;;;;;1901587;74;25298;-87
2023/11/20 01:20:11;;;;;;;9.90;4.27;;;-1.70;99.90;;;;;;1898518;74;25233;-87
2023/11/20 01:23:00;;;;;;;7.93;4.10;;;-1.70;99.90;;;;;;1899940;74;25213;-87
2023/11/20 01:25:49;;;;;;;7.90;4.00;;;-1.70;99.90;;;;;;1902992;74;25219;-87
2023/11/20 01:28:38;;;;;;;9.63;4.00;;;-1.70;99.90;;;;;;1890352;74;25685;-87
2023/11/20 01:31:26;;;;;;;9.30;3.87;;;-1.70;99.90;;;;;;1899433;74;25186;-87
2023/11/20 01:34:14;;;;;;;12.80;4.63;;;-1.60;99.90;;;;;;1895812;74;25317;-86
2023/11/20 01:39:47;;;;;;;6.60;3.70;;;-1.50;99.90;;;;;;1965034;71;27092;-88
2023/11/20 01:42:35;;;;;;;8.27;4.30;;;-1.50;99.90;;;;;;1909802;73;25235;-88
2023/11/20 01:45:24;;;;;;;10.70;4.37;;;-1.40;99.90;;;;;;1930449;73;25251;-88
2023/11/20 01:48:12;;;;;;;7.07;3.93;;;-1.40;99.90;;;;;;1930876;73;25307;-87
2023/11/20 01:51:01;;;;;;;6.80;3.03;;;-1.50;99.90;;;;;;1934253;73;25308;-87
2023/11/20 01:53:50;;;;;;;6.30;3.47;;;-1.50;99.90;;;;;;1929730;73;26539;-87
2023/11/20 01:56:39;;;;;;;10.63;4.57;;;-1.50;99.90;;;;;;1927185;73;26453;-87
2023/11/20 01:59:28;;;;;;;9.57;3.77;;;-1.50;99.90;;;;;;1921014;73;25217;-87
2023/11/20 02:02:18;;;;;;;11.10;3.67;;;-1.50;99.90;;;;;;1936517;73;25597;-87
2023/11/20 02:05:08;;;;;;;9.87;4.03;;;-1.60;99.90;;;;;;1928235;73;25725;-87
2023/11/20 02:07:57;;;;;;;9.73;4.50;;;-1.60;99.90;;;;;;1932404;73;25136;-87
2023/11/20 02:13:25;;;;;;;8.60;4.30;;;-1.60;99.90;;;;;;1919506;72;27133;-88
2023/11/20 02:16:13;;;;;;;8.93;5.07;;;-1.50;99.90;;;;;;1910054;74;25220;-88
2023/11/20 02:21:51;;;;;;;12.07;4.10;;;-1.70;99.90;;;;;;1936745;72;27143;-88
2023/11/20 02:24:39;;;;;;;10.20;4.77;;;-1.60;99.90;;;;;;1893204;75;25258;-88
2023/11/20 02:27:35;;;;;;;7.67;4.07;;;-1.50;99.90;;;;;;1896266;74;25971;-88
2023/11/20 02:30:24;;;;;;;8.00;4.33;;;-1.50;99.90;;;;;;1898431;74;25315;-88
2023/11/20 02:33:12;;;;;;;6.50;3.37;;;-1.60;99.90;;;;;;1891461;75;25751;-88
2023/11/20 02:36:02;;;;;;;8.07;4.03;;;-1.70;99.90;;;;;;1896865;75;25230;-88
2023/11/20 02:38:53;;;;;;;11.73;4.43;;;-1.60;99.90;;;;;;1899342;75;25219;-88
2023/11/20 02:41:43;;;;;;;9.67;4.17;;;-1.60;99.90;;;;;;1893384;74;25648;-88
2023/11/20 02:44:32;;;;;;;9.27;4.80;;;-1.60;99.90;;;;;;1889004;75;25254;-87
2023/11/20 02:47:22;;;;;;;2.70;1.73;;;-1.50;99.90;;;;;;1889962;75;25320;-87
2023/11/20 02:50:10;;;;;;;7.73;3.43;;;-1.40;99.90;;;;;;1883065;75;25281;-87
2023/11/20 02:52:59;;;;;;;9.57;4.13;;;-1.50;99.90;;;;;;1892652;75;25771;-88
2023/11/20 02:55:49;;;;;;;8.17;3.83;;;-1.50;99.90;;;;;;1880426;76;25674;-88
2023/11/20 02:58:38;;;;;;;9.50;4.30;;;-1.50;99.90;;;;;;1880720;76;25228;-88
2023/11/20 03:01:27;;;;;;;8.27;3.63;;;-1.50;99.90;;;;;;1877278;75;25295;-88
2023/11/20 03:04:18;;;;;;;8.90;4.57;;;-1.50;99.90;;;;;;1881234;75;25782;-88
2023/11/20 03:09:49;;;;;;;10.40;4.97;;;-1.50;99.90;;;;;;1934298;72;27087;-88
2023/11/20 03:12:37;;;;;;;9.90;4.73;;;-1.50;99.90;;;;;;1911516;75;25238;-88
2023/11/20 03:15:27;;;;;;;10.43;4.50;;;-1.40;99.90;;;;;;1907423;74;25283;-88
2023/11/20 03:18:16;;;;;;;10.03;4.43;;;-1.30;99.90;;;;;;1901530;74;25391;-88
2023/11/20 03:21:06;;;;;;;6.73;3.93;;;-1.40;99.90;;;;;;1901980;75;25225;-88
2023/11/20 03:23:54;;;;;;;7.80;4.40;;;-1.30;99.90;;;;;;1910267;75;25950;-88
2023/11/20 03:26:43;;;;;;;7.43;3.77;;;-1.40;99.90;;;;;;1906782;74;25238;-88
2023/11/20 03:29:32;;;;;;;8.70;4.40;;;-1.40;99.90;;;;;;1901237;75;25257;-88
2023/11/20 03:32:20;;;;;;;10.27;4.70;;;-1.40;99.90;;;;;;1910796;74;25305;-87
2023/11/20 03:35:11;;;;;;;7.13;4.13;;;-1.40;99.90;;;;;;1905094;75;25774;-87
2023/11/20 03:38:00;;;;;;;9.90;3.97;;;-1.40;99.90;;;;;;1908782;74;25242;-87
2023/11/20 03:40:49;;;;;;;9.20;4.70;;;-1.30;99.90;;;;;;1902216;73;25339;-87
2023/11/20 03:46:19;;;;;;;12.63;4.70;;;-1.20;99.90;;;;;;1938743;72;27064;-87
2023/11/20 03:49:07;;;;;;;12.40;4.30;;;-1.20;99.90;;;;;;1895739;75;25739;-88
2023/11/20 03:51:56;;;;;;;9.63;4.70;;;-1.20;99.90;;;;;;1895152;75;25277;-88
2023/11/20 03:54:45;;;;;;;10.77;3.43;;;-1.20;99.90;;;;;;1894874;75;25229;-88
2023/11/20 03:57:34;;;;;;;6.33;3.50;;;-1.20;99.90;;;;;;1891465;75;25346;-88
2023/11/20 04:00:22;;;;;;;12.97;4.80;;;-1.20;99.90;;;;;;1889799;75;25238;-88
2023/11/20 04:03:11;;;;;;;10.63;4.63;;;-1.20;99.90;;;;;;1897842;75;25320;-88
2023/11/20 04:05:59;;;;;;;10.93;4.87;;;-1.30;99.90;;;;;;1889449;75;25306;-87
2023/11/20 04:08:48;;;;;;;6.40;4.00;;;-1.30;99.90;;;;;;1892847;75;25273;-88
2023/11/20 04:11:37;;;;;;;10.00;4.67;;;-1.30;99.90;;;;;;1894807;75;25313;-88
2023/11/20 04:14:26;;;;;;;6.77;3.03;;;-1.30;99.90;;;;;;1896606;75;25261;-88
2023/11/20 04:17:15;;;;;;;9.10;4.57;;;-1.30;99.90;;;;;;1891654;75;25270;-88
2023/11/20 04:20:05;;;;;;;8.03;3.47;;;-1.30;99.90;;;;;;1893864;75;25285;-87
2023/11/20 04:22:54;;;;;;;8.83;4.57;;;-1.30;99.90;;;;;;1894156;75;25265;-88
2023/11/20 04:25:43;;;;;;;7.80;3.37;;;-1.40;99.90;;;;;;1892827;73;25799;-88
2023/11/20 04:31:11;;;;;;;10.53;5.20;;;-1.40;99.90;;;;;;1929031;72;27072;-88
2023/11/20 04:34:00;;;;;;;8.93;4.97;;;-1.40;99.90;;;;;;1941420;73;25209;-88
2023/11/20 04:36:49;;;;;;;11.17;5.00;;;-1.40;99.90;;;;;;1942838;73;25279;-88
2023/11/20 04:39:38;;;;;;;8.33;4.53;;;-1.40;99.90;;;;;;1938663;73;25346;-87
2023/11/20 04:42:27;;;;;;;10.03;4.43;;;-1.40;99.90;;;;;;1943161;73;25349;-89
2023/11/20 04:45:16;;;;;;;7.83;4.43;;;-1.30;99.90;;;;;;1943946;73;25270;-87
2023/11/20 04:48:05;;;;;;;8.57;4.30;;;-1.30;99.90;;;;;;1939937;73;25278;-87
2023/11/20 04:50:54;;;;;;;8.70;4.80;;;-1.40;99.90;;;;;;1937223;73;25233;-87
2023/11/20 04:53:44;;;;;;;11.40;5.10;;;-1.40;99.90;;;;;;1937919;73;25264;-87
2023/11/20 04:56:33;;;;;;;10.00;4.93;;;-1.40;99.90;;;;;;1937097;73;25580;-87
2023/11/20 04:59:21;;;;;;;9.93;5.07;;;-1.40;99.90;;;;;;1932355;73;25285;-87
2023/11/20 05:02:10;;;;;;;9.97;5.10;;;-1.40;99.90;;;;;;1939008;73;25216;-87
2023/11/20 05:04:59;;;;;;;5.20;3.50;;;-1.40;99.90;;;;;;1937510;73;25260;-87
2023/11/20 05:07:47;;;;;;;10.17;5.07;;;-1.40;99.90;;;;;;1939177;73;25213;-86
2023/11/20 05:13:17;;;;;;;10.33;4.17;;;-1.60;99.90;;;;;;1916954;72;27101;-88
2023/11/20 05:16:07;;;;;;;5.50;3.37;;;-1.50;99.90;;;;;;1900575;74;25873;-88
2023/11/20 05:18:56;;;;;;;9.60;4.07;;;-1.50;99.90;;;;;;1900944;74;25282;-87
2023/11/20 05:21:47;;;;;;;10.63;4.77;;;-1.50;99.90;;;;;;1892802;75;25660;-87
2023/11/20 05:24:36;;;;;;;10.13;4.90;;;-1.50;99.90;;;;;;1894321;75;25705;-87
2023/11/20 05:27:25;;;;;;;11.13;5.03;;;-1.50;99.90;;;;;;1900510;75;25171;-87
2023/11/20 05:30:15;;;;;;;15.27;5.50;;;-1.50;99.90;;;;;;1891571;75;25287;-87
2023/11/20 05:33:03;;;;;;;10.47;5.40;;;-1.50;99.90;;;;;;1894714;75;26163;-87
2023/11/20 05:35:52;;;;;;;10.77;5.10;;;-1.50;99.90;;;;;;1902314;74;25176;-88
2023/11/20 05:38:41;;;;;;;10.20;5.00;;;-1.40;99.90;;;;;;1900622;74;25302;-87
2023/11/20 05:41:29;;;;;;;9.43;4.30;;;-1.50;99.90;;;;;;1895179;75;25659;-87
2023/11/20 05:44:18;;;;;;;14.17;5.23;;;-1.60;99.90;;;;;;1869699;76;25258;-87
2023/11/20 05:49:53;;;;;;;13.80;5.20;;;-1.60;99.90;;;;;;1943072;72;27184;-88
2023/11/20 05:52:41;;;;;;;14.50;5.80;;;-1.60;99.90;;;;;;1913003;73;25300;-87
2023/11/20 05:55:32;;;;;;;13.60;5.27;;;-1.70;99.90;;;;;;1920427;73;25842;-87
2023/11/20 05:58:19;;;;;;;6.13;3.07;;;-1.60;99.90;;;;;;1918016;73;25705;-86
2023/11/20 06:01:09;;;;;;;10.57;5.10;;;-1.60;99.90;;;;;;1927243;73;25273;-87
2023/11/20 06:03:58;;;;;;;10.13;4.30;;;-1.60;99.90;;;;;;1916478;73;25180;-87
2023/11/20 06:06:47;;;;;;;11.80;5.60;;;-1.60;99.90;;;;;;1921627;73;25672;-88
2023/11/20 06:34:44;;;;;;;14.93;6.37;;;-1.40;99.90;;;;;;1955096;72;27126;-90
2023/11/20 06:37:33;;;;;;;15.20;6.40;;;-1.50;99.90;;;;;;1922713;73;25271;-90
2023/11/20 06:40:21;;;;;;;13.60;6.10;;;-1.50;99.90;;;;;;1916540;73;25154;-90
2023/11/20 06:43:11;;;;;;;15.53;6.23;;;-1.60;99.90;;;;;;1932540;73;25341;-90
2023/11/20 06:46:02;;;;;;;14.37;5.90;;;-1.80;99.90;;;;;;1915472;74;25183;-90
2023/11/20 06:48:51;;;;;;;16.30;6.17;;;-1.60;99.90;;;;;;1919333;74;25225;-90
2023/11/20 06:51:42;;;;;;;15.87;6.57;;;-1.50;99.90;;;;;;1917511;74;25296;-90
2023/11/20 06:54:31;;;;;;;14.70;5.73;;;-1.50;99.90;;;;;;1912664;74;25206;-90
2023/11/20 07:39:47;;;;;;;14.00;6.97;;;-1.60;99.90;;;;;;2061998;68;27197;-90
2023/11/20 07:42:37;;;;;;;13.07;5.83;;;-1.40;99.90;;;;;;2015539;69;25249;-90
2023/11/20 07:45:25;;;;;;;13.03;6.50;;;-1.40;99.90;;;;;;1991111;70;25259;-90
2023/11/20 07:48:14;;;;;;;19.47;6.20;;;-1.40;99.90;;;;;;2012219;70;25207;-89
2023/11/20 07:51:05;;;;;;;12.53;5.50;;;-1.30;99.90;;;;;;1990937;71;25144;-90
2023/11/20 07:53:55;;;;;;;11.87;5.60;;;-1.30;99.90;;;;;;2003529;70;25115;-90
2023/11/20 07:56:44;;;;;;;8.93;5.00;;;-1.30;99.90;;;;;;2005822;70;25678;-90
2023/11/20 08:23:52;;;;;;;8.70;4.83;;;-1.30;99.90;;;;;;2016661;69;26125;-91
2023/11/20 08:26:41;;;;;;;8.17;4.33;;;-1.40;99.90;;;;;;1989056;71;25700;-90
2023/11/20 08:29:31;;;;;;;7.70;4.30;;;-1.30;99.90;;;;;;1989683;71;25678;-91
2023/11/20 08:46:39;;;;;;;15.57;5.53;;;-1.20;99.90;;;;;;1919877;74;26976;-90
2023/11/20 08:53:25;;;;;;;16.70;5.90;;;-0.70;99.90;;;;;;1998024;71;27027;-91
2023/11/20 08:56:19;;;;;;;9.07;4.87;;;-0.70;99.90;;;;;;1988339;71;25142;-91
2023/11/20 08:59:12;;;;;;;9.40;4.50;;;-0.60;99.90;;;;;;2069402;69;25230;-90
2023/11/20 09:02:03;;;;;;;11.27;4.70;;;-0.60;99.90;;;;;;2071902;69;25741;-92
2023/11/20 09:04:53;;;;;;;8.57;3.90;;;-0.70;99.90;;;;;;2095133;68;25188;-91
2023/11/20 09:07:47;;;;;;;9.53;4.23;;;-0.70;99.90;;;;;;2070516;68;25199;-91
2023/11/20 09:10:38;;;;;;;3.10;1.60;;;-0.70;99.90;;;;;;2070182;68;25684;-90
2023/11/20 09:13:27;;;;;;;8.33;4.23;;;-0.70;99.90;;;;;;2074499;68;25642;-90
2023/11/20 09:16:17;;;;;;;3.50;1.97;;;-0.70;99.90;;;;;;2073620;68;25265;-91
2023/11/20 09:19:08;;;;;;;11.37;4.40;;;-0.70;99.90;;;;;;2095958;68;25213;-90
2023/11/20 09:22:01;;;;;;;9.70;3.73;;;-0.60;99.90;;;;;;2070775;68;25194;-91
2023/11/20 09:24:51;;;;;;;7.87;4.00;;;-0.70;99.90;;;;;;2082394;68;25284;-90
2023/11/20 09:27:47;;;;;;;7.50;4.03;;;-0.80;99.90;;;;;;2071142;68;25218;-91
2023/11/20 09:30:44;;;;;;;9.27;3.90;;;-0.70;99.90;;;;;;2069857;68;25137;-91
2023/11/20 09:33:36;;;;;;;8.33;3.63;;;-0.70;99.90;;;;;;2069626;68;25263;-91
2023/11/20 09:36:46;;;;;;;8.10;3.97;;;-0.60;99.90;;;;;;2078423;68;25108;-91
2023/11/20 09:53:05;;;;;;;9.53;3.97;;;-0.50;99.90;;;;;;1934126;72;27079;-89
2023/11/20 10:54:24;;;;;;;6.70;3.50;;;0.20;99.90;;;;;;1972288;72;29361;-91
2023/11/20 10:57:17;;;;;;;6.33;3.80;;;0.30;99.90;;;;;;1941160;73;25531;-90
2023/11/20 11:00:11;;;;;;;9.27;3.93;;;0.30;99.90;;;;;;1919565;73;25317;-91
2023/11/20 11:03:26;;;;;;;6.13;3.40;;;0.30;99.90;;;;;;1920446;73;25285;-91
2023/11/20 11:06:18;;;;;;;13.07;2.90;;;0.30;99.90;;;;;;1924206;73;25742;-92
2023/11/20 11:09:10;;;;;;;9.50;3.57;;;0.20;99.90;;;;;;1920067;73;26189;-92
2023/11/20 11:30:20;;;;;;;6.23;4.10;;;0.50;99.90;;;;;;1946670;72;26989;-91
2023/11/20 11:33:45;;;;;;;6.00;2.13;;;0.70;99.90;;;;;;1956658;72;25343;-91
2023/11/20 11:51:36;;;;;;;6.50;3.70;;;0.70;99.90;;;;;;1942945;72;26371;-91
2023/11/20 12:26:06;;;;;;;5.30;3.00;;;0.80;99.90;;;;;;1960960;72;26934;-91
2023/11/20 12:28:57;;;;;;;6.13;3.07;;;0.90;99.90;;;;;;1933531;73;26482;-90
2023/11/20 12:32:03;;;;;;;4.27;2.60;;;0.80;99.90;;;;;;1946350;73;25281;-90
2023/11/20 12:34:54;;;;;;;6.20;3.57;;;0.80;99.90;;;;;;1941009;73;25851;-91
2023/11/20 12:37:47;;;;;;;6.13;2.90;;;0.80;99.90;;;;;;1908665;73;25213;-91
2023/11/20 12:40:36;;;;;;;7.63;3.33;;;0.70;99.90;;;;;;1923655;72;25719;-91
2023/11/20 12:43:30;;;;;;;7.47;3.47;;;0.70;99.90;;;;;;1929367;73;25789;-90
2023/11/20 12:49:24;;;;;;;9.10;3.00;;;0.80;99.90;;;;;;1948825;72;26852;-91
2023/11/20 12:52:17;;;;;;;4.87;2.30;;;0.70;99.90;;;;;;1942597;72;25205;-90
2023/11/20 12:55:11;;;;;;;5.27;2.93;;;0.60;99.90;;;;;;1930275;73;25197;-91
2023/11/20 12:58:00;;;;;;;4.30;2.77;;;0.70;99.90;;;;;;1934301;73;25678;-90
2023/11/20 13:00:53;;;;;;;7.73;2.57;;;0.60;99.90;;;;;;1935136;73;25727;-91
2023/11/20 13:03:43;;;;;;;9.37;3.00;;;0.60;99.90;;;;;;1930321;72;25360;-91
2023/11/20 13:38:02;;;;;;;13.33;3.67;;;0.70;99.90;;;;;;1985656;71;27030;-91
2023/11/20 13:40:54;;;;;;;8.17;3.57;;;0.60;99.90;;;;;;1952288;72;25272;-91
2023/11/20 13:43:52;;;;;;;6.40;3.33;;;0.50;99.90;;;;;;2000125;70;25254;-90
2023/11/20 13:47:19;;;;;;;4.63;2.93;;;0.40;99.90;;;;;;2001895;71;25211;-91
2023/11/20 13:55:13;;;;;;;7.80;3.27;;;0.60;99.90;;;;;;1967908;71;27013;-91
2023/11/20 13:58:03;;;;;;;7.53;3.87;;;0.50;99.90;;;;;;1958439;71;25230;-90
2023/11/20 14:00:56;;;;;;;7.10;3.37;;;0.40;99.90;;;;;;1939831;72;25295;-91
2023/11/20 14:03:46;;;;;;;4.67;3.23;;;0.40;99.90;;;;;;1931496;73;25242;-90
2023/11/20 14:09:25;;;;;;;6.60;2.67;;;0.30;99.90;;;;;;1942503;72;27457;-91
2023/11/20 14:12:16;;;;;;;8.33;3.30;;;0.30;99.90;;;;;;1929311;73;25250;-90
2023/11/20 14:15:08;;;;;;;6.87;2.80;;;0.20;99.90;;;;;;1922081;73;25280;-90
2023/11/20 14:35:02;;;;;;;6.87;3.10;;;0.30;99.90;;;;;;1947395;72;28676;-91
2023/11/20 14:55:12;;;;;;;8.60;3.80;;;0.20;99.90;;;;;;1954804;72;28653;-90
